Time;durP1;ratioP1;P1;durP2;ratioP2;P2;SDS_P1;SDS_P2;PMS_P1;PMS_P2;Temp;Humidity;BMP_temperature;BMP_pressure;BME280_temperature;BME280_humidity;BME280_pressure;Samples;Min_cycle;Max_cycle;Signal;HPM_P1;HPM_P2
2023/04/10 00:02:17;;;;;;;;;;;8.50;99.90;;;;;;5094730;28;19920;-68
2023/04/10 00:04:43;;;;;;;;;;;8.50;99.90;;;;;;5077153;28;19924;-68
2023/04/10 00:07:08;;;;;;;;;;;8.50;99.90;;;;;;5094706;28;20042;-68
2023/04/10 00:09:34;;;;;;;;;;;8.50;99.90;;;;;;5094874;28;19924;-68
2023/04/10 00:12:00;;;;;;;;;;;8.60;99.90;;;;;;5076596;28;19935;-70
2023/04/10 00:14:26;;;;;;;;;;;8.50;99.90;;;;;;5076562;28;19924;-68
2023/04/10 00:16:51;;;;;;;;;;;8.40;99.90;;;;;;5077048;28;19958;-68
2023/04/10 00:19:17;;;;;;;;;;;8.40;99.90;;;;;;5094309;28;19969;-68
2023/04/10 00:21:43;;;;;;;;;;;8.30;99.90;;;;;;5060119;28;20242;-68
2023/04/10 00:24:08;;;;;;;;;;;8.30;99.90;;;;;;5076093;28;19963;-68
2023/04/10 00:26:34;;;;;;;;;;;8.30;99.90;;;;;;5076210;28;20285;-69
2023/04/10 00:29:00;;;;;;;;;;;8.50;99.90;;;;;;5094672;28;20303;-69
2023/04/10 00:31:26;;;;;;;;;;;8.20;99.90;;;;;;5075938;28;19981;-68
2023/04/10 00:33:52;;;;;;;;;;;8.20;99.90;;;;;;5059940;28;19928;-68
2023/04/10 00:36:17;;;;;;;;;;;8.10;99.90;;;;;;5076271;28;20380;-68
2023/04/10 00:38:43;;;;;;;;;;;8.10;99.90;;;;;;5076390;28;19939;-67
2023/04/10 00:41:09;;;;;;;;;;;8.10;99.90;;;;;;5075508;28;19924;-68
2023/04/10 00:43:35;;;;;;;;;;;8.10;99.90;;;;;;5076241;28;20281;-68
2023/04/10 00:46:01;;;;;;;;;;;8.10;99.90;;;;;;5094458;28;19924;-68
2023/04/10 00:48:26;;;;;;;;;;;8.00;99.90;;;;;;5076024;28;19924;-68
2023/04/10 00:50:52;;;;;;;;;;;8.00;99.90;;;;;;5094017;28;20369;-68
2023/04/10 00:53:18;;;;;;;;;;;8.00;99.90;;;;;;5093597;28;19936;-68
2023/04/10 00:55:44;;;;;;;;;;;8.00;99.90;;;;;;5059424;28;19963;-68
2023/04/10 00:58:13;;;;;;;;;;;7.90;99.90;;;;;;5093777;28;19935;-68
2023/04/10 01:00:39;;;;;;;;;;;7.90;99.90;;;;;;5076116;28;19928;-68
2023/04/10 01:03:06;;;;;;;;;;;7.90;99.90;;;;;;5075805;28;19931;-69
2023/04/10 01:05:34;;;;;;;;;;;7.80;99.90;;;;;;5093530;28;19931;-67
2023/04/10 01:08:04;;;;;;;;;;;7.80;99.90;;;;;;5075686;28;20409;-68
2023/04/10 01:10:48;;;;;;;;;;;7.80;99.90;;;;;;5093668;28;19928;-67
2023/04/10 01:13:19;;;;;;;;;;;7.70;99.90;;;;;;5058374;28;20378;-67
2023/04/10 01:16:00;;;;;;;;;;;7.70;99.90;;;;;;5059097;28;19967;-69
2023/04/10 01:18:32;;;;;;;;;;;7.70;99.90;;;;;;5058825;28;19924;-67
2023/04/10 01:21:00;;;;;;;;;;;7.60;99.90;;;;;;5075873;28;19977;-68
2023/04/10 01:23:29;;;;;;;;;;;7.60;99.90;;;;;;5074638;28;19932;-69
2023/04/10 01:26:11;;;;;;;;;;;7.60;99.90;;;;;;5075733;28;20281;-68
2023/04/10 01:29:12;;;;;;;;;;;7.60;99.90;;;;;;5058493;28;19925;-68
2023/04/10 01:31:41;;;;;;;;;;;7.50;99.90;;;;;;4975313;28;19926;-68
2023/04/10 01:34:08;;;;;;;;;;;7.50;99.90;;;;;;5073982;28;19924;-68
2023/04/10 01:36:48;;;;;;;;;;;7.50;99.90;;;;;;5058544;28;19935;-68
2023/04/10 01:39:17;;;;;;;;;;;7.50;99.90;;;;;;5092643;28;19924;-70
2023/04/10 01:41:43;;;;;;;;;;;7.40;99.90;;;;;;5058731;28;19969;-68
2023/04/10 01:44:10;;;;;;;;;;;7.40;99.90;;;;;;5058061;28;20312;-68
2023/04/10 01:46:36;;;;;;;;;;;7.40;99.90;;;;;;5074755;28;19928;-67
2023/04/10 01:49:03;;;;;;;;;;;7.40;99.90;;;;;;5075056;28;19924;-68
2023/04/10 01:51:29;;;;;;;;;;;7.40;99.90;;;;;;5074215;28;20354;-68
2023/04/10 01:53:55;;;;;;;;;;;7.40;99.90;;;;;;5092901;28;19931;-68
2023/04/10 01:56:21;;;;;;;;;;;7.30;99.90;;;;;;5074397;28;19931;-69
2023/04/10 01:58:46;;;;;;;;;;;7.30;99.90;;;;;;5058332;28;20007;-68
2023/04/10 02:01:19;;;;;;;;;;;7.30;99.90;;;;;;5041885;28;20262;-69
2023/04/10 02:03:46;;;;;;;;;;;7.30;99.90;;;;;;5057895;28;19924;-69
2023/04/10 02:06:26;;;;;;;;;;;7.40;99.90;;;;;;5057954;28;19924;-68
2023/04/10 02:09:03;;;;;;;;;;;7.30;99.90;;;;;;5074996;28;19931;-68
2023/04/10 02:11:46;;;;;;;;;;;7.30;99.90;;;;;;5092422;28;19935;-68
2023/04/10 02:14:15;;;;;;;;;;;7.30;99.90;;;;;;5074506;28;19924;-68
2023/04/10 02:16:41;;;;;;;;;;;7.20;99.90;;;;;;5074154;28;19928;-67
2023/04/10 02:19:08;;;;;;;;;;;7.30;99.90;;;;;;5074561;28;19924;-68
2023/04/10 02:21:34;;;;;;;;;;;7.30;99.90;;;;;;5092202;28;19931;-68
2023/04/10 02:24:00;;;;;;;;;;;7.30;99.90;;;;;;5074105;28;20357;-69
2023/04/10 02:26:25;;;;;;;;;;;7.30;99.90;;;;;;5074382;28;19924;-69
2023/04/10 02:28:51;;;;;;;;;;;7.30;99.90;;;;;;5091968;28;19983;-69
2023/04/10 02:31:16;;;;;;;;;;;7.20;99.90;;;;;;5041268;28;19924;-68
2023/04/10 02:33:42;;;;;;;;;;;7.20;99.90;;;;;;5073748;28;19928;-69
2023/04/10 02:36:08;;;;;;;;;;;7.30;99.90;;;;;;5057638;28;20300;-68
2023/04/10 02:38:33;;;;;;;;;;;7.20;99.90;;;;;;5074174;28;19924;-68
2023/04/10 02:40:59;;;;;;;;;;;7.20;99.90;;;;;;5056937;28;20290;-69
2023/04/10 02:43:25;;;;;;;;;;;7.20;99.90;;;;;;5057012;28;19924;-68
2023/04/10 02:45:51;;;;;;;;;;;7.20;99.90;;;;;;5074169;28;20037;-68
2023/04/10 02:48:17;;;;;;;;;;;7.20;99.90;;;;;;5040977;28;19983;-67
2023/04/10 02:50:45;;;;;;;;;;;7.20;99.90;;;;;;5073553;28;20167;-68
2023/04/10 02:53:14;;;;;;;;;;;7.20;99.90;;;;;;5091971;28;19928;-68
2023/04/10 02:55:40;;;;;;;;;;;7.10;99.90;;;;;;5090582;28;19939;-68
2023/04/10 02:58:06;;;;;;;;;;;7.20;99.90;;;;;;5074031;28;19932;-67
2023/04/10 03:00:32;;;;;;;;;;;7.10;99.90;;;;;;5073653;28;19931;-68
2023/04/10 03:02:57;;;;;;;;;;;7.10;99.90;;;;;;5056983;28;19946;-68
2023/04/10 03:05:23;;;;;;;;;;;7.10;99.90;;;;;;5073886;28;20051;-68
2023/04/10 03:07:49;;;;;;;;;;;7.10;99.90;;;;;;5056657;28;19931;-68
2023/04/10 03:10:14;;;;;;;;;;;7.10;99.90;;;;;;5057153;28;19982;-67
2023/04/10 03:12:40;;;;;;;;;;;7.10;99.90;;;;;;5039843;28;20320;-68
2023/04/10 03:15:06;;;;;;;;;;;7.10;99.90;;;;;;5091500;28;19979;-69
2023/04/10 03:17:31;;;;;;;;;;;7.10;99.90;;;;;;5073311;28;19924;-68
2023/04/10 03:19:57;;;;;;;;;;;7.10;99.90;;;;;;5073645;28;19924;-68
2023/04/10 03:22:23;;;;;;;;;;;7.10;99.90;;;;;;5073825;28;20022;-66
2023/04/10 03:24:48;;;;;;;;;;;7.10;99.90;;;;;;5056754;28;19931;-68
2023/04/10 03:27:15;;;;;;;;;;;7.00;99.90;;;;;;5056775;28;20368;-68
2023/04/10 03:29:40;;;;;;;;;;;7.10;99.90;;;;;;5073165;28;19928;-68
2023/04/10 03:32:06;;;;;;;;;;;7.00;99.90;;;;;;5073505;28;20262;-68
2023/04/10 03:34:31;;;;;;;;;;;7.00;99.90;;;;;;5073113;28;20211;-71
2023/04/10 03:36:57;;;;;;;;;;;7.00;99.90;;;;;;5056662;28;19924;-68
2023/04/10 03:39:23;;;;;;;;;;;7.00;99.90;;;;;;5091214;28;19930;-68
2023/04/10 03:41:49;;;;;;;;;;;6.90;99.90;;;;;;5073181;28;20037;-70
2023/04/10 03:44:14;;;;;;;;;;;6.90;99.90;;;;;;5073526;28;20346;-68
2023/04/10 03:46:40;;;;;;;;;;;6.80;99.90;;;;;;5073379;28;19928;-69
2023/04/10 03:49:05;;;;;;;;;;;6.80;99.90;;;;;;5091455;28;19981;-69
2023/04/10 03:51:31;;;;;;;;;;;6.80;99.90;;;;;;5073326;28;20019;-69
2023/04/10 03:53:57;;;;;;;;;;;6.80;99.90;;;;;;5090839;28;19928;-68
2023/04/10 03:56:22;;;;;;;;;;;6.80;99.90;;;;;;5091300;28;20338;-67
2023/04/10 03:58:48;;;;;;;;;;;6.70;99.90;;;;;;5072520;28;20262;-68
2023/04/10 04:01:13;;;;;;;;;;;6.70;99.90;;;;;;5040207;28;20331;-69
2023/04/10 04:03:39;;;;;;;;;;;6.70;99.90;;;;;;5056199;28;19928;-67
2023/04/10 04:06:05;;;;;;;;;;;6.70;99.90;;;;;;5056830;28;20362;-68
2023/04/10 04:08:30;;;;;;;;;;;6.70;99.90;;;;;;5059918;28;19974;-68
2023/04/10 04:10:56;;;;;;;;;;;6.70;99.90;;;;;;5076464;28;19989;-68
2023/04/10 04:13:21;;;;;;;;;;;6.60;99.90;;;;;;5043843;28;20003;-68
2023/04/10 04:15:47;;;;;;;;;;;6.60;99.90;;;;;;5076312;28;19924;-68
2023/04/10 04:18:13;;;;;;;;;;;6.50;99.90;;;;;;5059977;28;19947;-68
2023/04/10 04:20:38;;;;;;;;;;;6.50;99.90;;;;;;5076486;28;20021;-69
2023/04/10 04:23:04;;;;;;;;;;;6.50;99.90;;;;;;5059942;28;19931;-69
2023/04/10 04:25:30;;;;;;;;;;;6.50;99.90;;;;;;5076643;28;20357;-67
2023/04/10 04:27:56;;;;;;;;;;;6.40;99.90;;;;;;5058954;28;19924;-67
2023/04/10 04:30:22;;;;;;;;;;;6.40;99.90;;;;;;5059938;28;19969;-67
2023/04/10 04:32:47;;;;;;;;;;;6.40;99.90;;;;;;5076308;28;20365;-68
2023/04/10 04:35:13;;;;;;;;;;;6.40;99.90;;;;;;5076612;28;19928;-67
2023/04/10 04:37:38;;;;;;;;;;;6.40;99.90;;;;;;5059669;28;19936;-70
2023/04/10 04:40:04;;;;;;;;;;;6.40;99.90;;;;;;5093879;28;20369;-67
2023/04/10 04:42:30;;;;;;;;;;;6.40;99.90;;;;;;5059397;28;19935;-68
2023/04/10 04:44:55;;;;;;;;;;;6.40;99.90;;;;;;5075841;28;19924;-69
2023/04/10 04:47:23;;;;;;;;;;;6.40;99.90;;;;;;5042822;28;19931;-68
2023/04/10 04:49:48;;;;;;;;;;;6.40;99.90;;;;;;5059069;28;19925;-68
2023/04/10 04:52:14;;;;;;;;;;;6.40;99.90;;;;;;5042689;28;19972;-68
2023/04/10 04:54:40;;;;;;;;;;;6.40;99.90;;;;;;5059604;28;19928;-68
2023/04/10 04:57:06;;;;;;;;;;;6.30;99.90;;;;;;5058511;28;19928;-69
2023/04/10 04:59:31;;;;;;;;;;;6.20;99.90;;;;;;5093798;28;19924;-68
2023/04/10 05:01:57;;;;;;;;;;;6.40;99.90;;;;;;5058890;28;19946;-69
2023/04/10 05:04:22;;;;;;;;;;;6.40;99.90;;;;;;5059447;28;19924;-69
2023/04/10 05:06:48;;;;;;;;;;;6.40;99.90;;;;;;5075780;28;19924;-68
2023/04/10 05:09:13;;;;;;;;;;;6.40;99.90;;;;;;5042444;28;19989;-68
2023/04/10 05:11:39;;;;;;;;;;;6.40;99.90;;;;;;5058931;28;19935;-68
2023/04/10 05:14:05;;;;;;;;;;;6.40;99.90;;;;;;5058401;28;19931;-67
2023/04/10 05:16:30;;;;;;;;;;;6.50;99.90;;;;;;5058865;28;19996;-70
2023/04/10 05:18:56;;;;;;;;;;;6.50;99.90;;;;;;5074315;28;19924;-68
2023/04/10 05:21:22;;;;;;;;;;;6.50;99.90;;;;;;5093429;28;19924;-68
2023/04/10 05:23:47;;;;;;;;;;;6.50;99.90;;;;;;5092896;28;20038;-69
2023/04/10 05:26:13;;;;;;;;;;;6.50;99.90;;;;;;5075222;28;20019;-68
2023/04/10 05:28:38;;;;;;;;;;;6.60;99.90;;;;;;5093343;28;19924;-68
2023/04/10 05:31:04;;;;;;;;;;;6.70;99.90;;;;;;5074935;28;19924;-68
2023/04/10 05:33:30;;;;;;;;;;;6.70;99.90;;;;;;5075014;28;20396;-67
2023/04/10 05:35:56;;;;;;;;;;;6.80;99.90;;;;;;5074833;28;19924;-69
2023/04/10 05:38:21;;;;;;;;;;;6.80;99.90;;;;;;5074974;28;20027;-68
2023/04/10 05:40:47;;;;;;;;;;;6.90;99.90;;;;;;5041415;28;19946;-69
2023/04/10 05:43:13;;;;;;;;;;;6.90;99.90;;;;;;5074576;28;19924;-68
2023/04/10 05:45:42;;;;;;;;;;;7.00;99.90;;;;;;5058327;28;19978;-67
2023/04/10 05:48:07;;;;;;;;;;;7.00;99.90;;;;;;5074647;28;19931;-68
2023/04/10 05:50:34;;;;;;;;;;;7.10;99.90;;;;;;5093182;28;19924;-69
2023/04/10 05:52:59;;;;;;;;;;;7.20;99.90;;;;;;5057960;28;19928;-68
2023/04/10 05:55:25;;;;;;;;;;;7.20;99.90;;;;;;5075067;28;20035;-68
2023/04/10 05:57:51;;;;;;;;;;;7.40;99.90;;;;;;5057912;28;19924;-71
2023/04/10 06:00:16;;;;;;;;;;;7.50;99.90;;;;;;5074668;28;20015;-68
2023/04/10 06:02:42;;;;;;;;;;;7.80;99.90;;;;;;5057767;28;19924;-69
2023/04/10 06:05:08;;;;;;;;;;;8.00;99.90;;;;;;5074374;28;19932;-67
2023/04/10 06:07:33;;;;;;;;;;;8.00;99.90;;;;;;5057670;28;19924;-68
2023/04/10 06:09:59;;;;;;;;;;;8.00;99.90;;;;;;5092218;28;19973;-67
2023/04/10 06:12:25;;;;;;;;;;;8.10;99.90;;;;;;5041722;28;20017;-68
2023/04/10 06:14:50;;;;;;;;;;;8.10;99.90;;;;;;5074488;28;19924;-68
2023/04/10 06:17:16;;;;;;;;;;;8.20;99.90;;;;;;5074282;28;19924;-68
2023/04/10 06:19:42;;;;;;;;;;;8.20;99.90;;;;;;5058020;28;19924;-68
2023/04/10 06:22:07;;;;;;;;;;;8.30;99.90;;;;;;5057339;28;19982;-68
2023/04/10 06:24:33;;;;;;;;;;;8.50;99.90;;;;;;5092251;28;19970;-68
2023/04/10 06:26:58;;;;;;;;;;;8.60;99.90;;;;;;5092146;28;19969;-68
2023/04/10 06:29:24;;;;;;;;;;;8.70;99.90;;;;;;5074373;28;19924;-68
2023/04/10 06:31:50;;;;;;;;;;;9.10;99.90;;;;;;5092392;28;20399;-68
2023/04/10 06:34:15;;;;;;;;;;;9.50;99.90;;;;;;5057394;28;20237;-68
2023/04/10 06:36:41;;;;;;;;;;;9.80;99.90;;;;;;5057798;28;19924;-69
2023/04/10 06:39:07;;;;;;;;;;;10.00;99.90;;;;;;5040767;28;19946;-69
2023/04/10 06:41:32;;;;;;;;;;;10.10;99.90;;;;;;5057049;28;19969;-68
2023/04/10 06:43:58;;;;;;;;;;;10.20;99.90;;;;;;5056838;28;19986;-70
2023/04/10 06:46:23;;;;;;;;;;;10.10;99.90;;;;;;5073773;28;20414;-68
2023/04/10 06:48:49;;;;;;;;;;;10.10;99.90;;;;;;5074446;28;19948;-68
2023/04/10 06:51:14;;;;;;;;;;;10.10;99.90;;;;;;5040713;28;19930;-69
2023/04/10 06:53:40;;;;;;;;;;;10.20;99.90;;;;;;5074352;28;20439;-67
2023/04/10 06:56:07;;;;;;;;;;;10.40;99.90;;;;;;5091842;28;19932;-69
2023/04/10 06:58:32;;;;;;;;;;;10.70;99.90;;;;;;5074387;28;19924;-68
2023/04/10 07:01:02;;;;;;;;;;;11.00;99.90;;;;;;5091993;28;20381;-69
2023/04/10 07:03:29;;;;;;;;;;;11.40;99.90;;;;;;5057792;28;19975;-69
2023/04/10 07:05:55;;;;;;;;;;;11.80;99.90;;;;;;5092062;28;19963;-69
2023/04/10 07:08:21;;;;;;;;;;;11.90;99.90;;;;;;5056443;28;20404;-69
2023/04/10 07:10:47;;;;;;;;;;;11.90;99.90;;;;;;5057649;28;19924;-69
2023/04/10 07:13:13;;;;;;;;;;;11.80;99.90;;;;;;5091162;28;19978;-70
2023/04/10 07:15:38;;;;;;;;;;;11.60;99.90;;;;;;5056978;28;19929;-67
2023/04/10 07:18:04;;;;;;;;;;;11.40;99.90;;;;;;5073638;28;19967;-68
2023/04/10 07:20:30;;;;;;;;;;;11.40;99.90;;;;;;5056992;28;19928;-67
2023/04/10 07:22:55;;;;;;;;;;;11.80;99.90;;;;;;5073565;28;19931;-67
2023/04/10 07:25:21;;;;;;;;;;;12.20;99.90;;;;;;5091240;28;19928;-69
2023/04/10 07:27:46;;;;;;;;;;;12.40;99.90;;;;;;5040386;28;19984;-68
2023/04/10 07:30:14;;;;;;;;;;;12.70;99.90;;;;;;5056057;28;20206;-69
2023/04/10 07:32:40;;;;;;;;;;;12.80;99.90;;;;;;5057236;28;19978;-68
2023/04/10 07:35:06;;;;;;;;;;;13.00;99.90;;;;;;5073465;28;19924;-69
2023/04/10 07:37:32;;;;;;;;;;;13.30;99.90;;;;;;5041009;28;19981;-69
2023/04/10 07:39:58;;;;;;;;;;;13.50;99.90;;;;;;5056855;28;19971;-68
2023/04/10 07:42:23;;;;;;;;;;;13.80;99.90;;;;;;5093314;28;20182;-69
2023/04/10 07:44:49;;;;;;;;;;;14.00;99.90;;;;;;5077851;28;19943;-67
2023/04/10 07:47:15;;;;;;;;;;;14.20;99.90;;;;;;5077599;28;20011;-67
2023/04/10 07:49:40;;;;;;;;;;;14.60;99.90;;;;;;5060909;28;19924;-69
2023/04/10 07:52:06;;;;;;;;;;;15.20;99.90;;;;;;5044172;28;20285;-69
2023/04/10 07:54:35;;;;;;;;;;;15.80;99.90;;;;;;5044361;28;19993;-67
2023/04/10 07:57:00;;;;;;;;;;;16.30;99.90;;;;;;5095559;28;19981;-66
2023/04/10 07:59:27;;;;;;;;;;;16.70;99.90;;;;;;5076789;28;19974;-67
2023/04/10 08:01:53;;;;;;;;;;;17.20;99.90;;;;;;5077398;28;20094;-66
2023/04/10 08:04:18;;;;;;;;;;;17.50;99.40;;;;;;5076774;28;20065;-67
2023/04/10 08:06:44;;;;;;;;;;;17.70;98.70;;;;;;5076948;28;20030;-67
2023/04/10 08:09:10;;;;;;;;;;;17.80;98.70;;;;;;5095003;28;19928;-69
2023/04/10 08:11:36;;;;;;;;;;;17.80;96.60;;;;;;5095124;28;19932;-65
2023/04/10 08:14:02;;;;;;;;;;;17.80;95.80;;;;;;5076942;28;20038;-67
2023/04/10 08:16:29;;;;;;;;;;;17.50;95.80;;;;;;5094371;28;19924;-66
2023/04/10 08:18:56;;;;;;;;;;;17.30;96.30;;;;;;5060205;28;19924;-66
2023/04/10 08:21:22;;;;;;;;;;;17.20;95.10;;;;;;5076406;28;20024;-65
2023/04/10 08:23:58;;;;;;;;;;;17.10;95.40;;;;;;5076598;28;19924;-66
2023/04/10 08:26:25;;;;;;;;;;;16.90;95.00;;;;;;5060057;28;19925;-66
2023/04/10 08:28:51;;;;;;;;;;;16.80;95.00;;;;;;5059869;28;19924;-66
2023/04/10 08:31:17;;;;;;;;;;;16.70;94.90;;;;;;5043475;28;19930;-66
2023/04/10 08:33:43;;;;;;;;;;;17.00;95.50;;;;;;5077057;28;20011;-66
2023/04/10 08:36:09;;;;;;;;;;;17.60;94.60;;;;;;5076617;28;20357;-67
2023/04/10 08:38:35;;;;;;;;;;;17.60;94.10;;;;;;5094039;28;19924;-67
2023/04/10 08:41:01;;;;;;;;;;;17.60;93.90;;;;;;5094653;28;20484;-67
2023/04/10 08:43:26;;;;;;;;;;;17.80;93.90;;;;;;5075940;28;19924;-65
2023/04/10 08:45:52;;;;;;;;;;;17.90;93.80;;;;;;5094401;28;19930;-67
2023/04/10 08:48:18;;;;;;;;;;;18.10;93.60;;;;;;5059791;28;19924;-67
2023/04/10 08:50:44;;;;;;;;;;;18.20;93.10;;;;;;5094394;28;19924;-67
2023/04/10 08:53:12;;;;;;;;;;;18.20;92.80;;;;;;5074769;28;19924;-68
2023/04/10 08:55:39;;;;;;;;;;;17.90;93.10;;;;;;5075985;28;20503;-67
2023/04/10 08:58:04;;;;;;;;;;;17.70;93.50;;;;;;5076309;28;20392;-67
2023/04/10 09:00:33;;;;;;;;;;;17.80;93.20;;;;;;5075837;28;19928;-68
2023/04/10 09:02:59;;;;;;;;;;;17.90;93.30;;;;;;5076190;28;20357;-67
2023/04/10 09:05:28;;;;;;;;;;;17.90;93.10;;;;;;5075906;28;20014;-67
2023/04/10 09:07:54;;;;;;;;;;;17.90;93.30;;;;;;5042320;28;19924;-69
2023/04/10 09:10:19;;;;;;;;;;;18.00;93.30;;;;;;5059599;28;19928;-71
2023/04/10 09:12:46;;;;;;;;;;;18.30;93.20;;;;;;5075882;28;19990;-70
2023/04/10 09:15:12;;;;;;;;;;;18.30;93.10;;;;;;5076342;28;19935;-65
2023/04/10 09:17:53;;;;;;;;;;;18.30;92.90;;;;;;5075343;28;19928;-66
2023/04/10 09:20:20;;;;;;;;;;;18.20;93.00;;;;;;5059445;28;19977;-67
2023/04/10 09:22:46;;;;;;;;;;;18.10;93.20;;;;;;5058454;28;19979;-66
2023/04/10 09:25:28;;;;;;;;;;;18.20;93.40;;;;;;5093660;28;19971;-69
2023/04/10 09:28:04;;;;;;;;;;;18.40;93.00;;;;;;5059105;28;19967;-67
2023/04/10 09:30:47;;;;;;;;;;;18.20;92.50;;;;;;5093370;28;19928;-66
2023/04/10 09:33:26;;;;;;;;;;;17.90;92.50;;;;;;5075541;28;19924;-67
2023/04/10 09:35:52;;;;;;;;;;;17.50;92.70;;;;;;5093672;28;19974;-66
2023/04/10 09:38:18;;;;;;;;;;;17.20;92.70;;;;;;5093318;28;19925;-67
2023/04/10 09:40:45;;;;;;;;;;;17.10;92.90;;;;;;5057523;28;19924;-69
2023/04/10 09:43:18;;;;;;;;;;;16.80;93.10;;;;;;5058818;28;19931;-67
2023/04/10 09:46:02;;;;;;;;;;;16.70;93.30;;;;;;5042162;28;19949;-64
2023/04/10 09:48:27;;;;;;;;;;;16.60;93.20;;;;;;5075036;28;19924;-66
2023/04/10 09:50:53;;;;;;;;;;;16.60;93.50;;;;;;5042336;28;19942;-66
2023/04/10 09:53:19;;;;;;;;;;;16.80;93.20;;;;;;5093409;28;19924;-65
2023/04/10 09:55:46;;;;;;;;;;;16.80;93.30;;;;;;5058740;28;19924;-66
2023/04/10 09:58:12;;;;;;;;;;;16.70;93.30;;;;;;5093493;28;19979;-65
2023/04/10 10:00:39;;;;;;;;;;;16.60;93.10;;;;;;5074901;28;19939;-65
2023/04/10 10:03:06;;;;;;;;;;;16.50;93.40;;;;;;5093178;28;19924;-66
2023/04/10 10:05:34;;;;;;;;;;;17.00;94.00;;;;;;5057335;28;19928;-70
2023/04/10 10:08:00;;;;;;;;;;;16.60;93.30;;;;;;5075017;28;19939;-65
2023/04/10 10:10:25;;;;;;;;;;;16.70;93.30;;;;;;5093093;28;19925;-65
2023/04/10 10:12:53;;;;;;;;;;;16.60;93.80;;;;;;5058013;28;19931;-65
2023/04/10 10:15:41;;;;;;;;;;;16.70;93.40;;;;;;5058251;28;19939;-65
2023/04/10 10:18:16;;;;;;;;;;;16.70;93.40;;;;;;5075174;28;20285;-65
2023/04/10 10:20:43;;;;;;;;;;;16.80;93.30;;;;;;5092905;28;19924;-65
2023/04/10 10:23:08;;;;;;;;;;;16.80;93.20;;;;;;5074578;28;20022;-67
2023/04/10 10:25:35;;;;;;;;;;;16.80;93.10;;;;;;5074943;28;20368;-66
2023/04/10 10:28:03;;;;;;;;;;;16.90;93.30;;;;;;5093013;28;19924;-66
2023/04/10 10:30:36;;;;;;;;;;;16.90;93.00;;;;;;5092686;28;19924;-66
2023/04/10 10:33:05;;;;;;;;;;;16.80;93.00;;;;;;5092775;28;19927;-66
2023/04/10 10:35:31;;;;;;;;;;;16.60;93.40;;;;;;5092831;28;19924;-66
2023/04/10 10:38:01;;;;;;;;;;;16.60;93.50;;;;;;5092687;28;19924;-66
2023/04/10 10:40:29;;;;;;;;;;;16.60;93.30;;;;;;5074336;28;19931;-65
2023/04/10 10:43:01;;;;;;;;;;;16.50;93.70;;;;;;5074306;28;19931;-66
2023/04/10 10:45:33;;;;;;;;;;;16.50;93.60;;;;;;5074626;28;20293;-67
2023/04/10 10:47:59;;;;;;;;;;;16.50;93.40;;;;;;5092509;28;20358;-66
2023/04/10 10:50:24;;;;;;;;;;;16.50;93.40;;;;;;5074686;28;19997;-65
2023/04/10 10:52:56;;;;;;;;;;;16.40;93.40;;;;;;5074414;28;19994;-65
2023/04/10 10:55:22;;;;;;;;;;;16.20;93.20;;;;;;5092445;28;19924;-67
2023/04/10 10:57:49;;;;;;;;;;;16.40;93.40;;;;;;5057581;28;20365;-67
2023/04/10 11:00:15;;;;;;;;;;;16.30;93.30;;;;;;5074567;28;20365;-67
2023/04/10 11:02:40;;;;;;;;;;;16.40;93.40;;;;;;5073579;28;19924;-66
2023/04/10 11:05:06;;;;;;;;;;;16.40;92.70;;;;;;5057755;28;20012;-68
2023/04/10 11:07:51;;;;;;;;;;;16.30;93.00;;;;;;5074677;28;19931;-66
2023/04/10 11:10:16;;;;;;;;;;;16.30;93.00;;;;;;5074511;28;20350;-66
2023/04/10 11:13:08;;;;;;;;;;;16.30;93.20;;;;;;5092100;28;19924;-68
2023/04/10 11:15:34;;;;;;;;;;;16.30;93.30;;;;;;5074246;28;19966;-65
2023/04/10 11:18:00;;;;;;;;;;;16.30;93.40;;;;;;5076843;28;19928;-66
2023/04/10 11:20:27;;;;;;;;;;;16.40;93.40;;;;;;5078485;28;19938;-66
2023/04/10 11:23:11;;;;;;;;;;;16.40;93.30;;;;;;5077824;28;19927;-66
2023/04/10 11:25:47;;;;;;;;;;;16.40;93.30;;;;;;5077861;28;20331;-67
2023/04/10 11:28:31;;;;;;;;;;;16.50;93.10;;;;;;5061779;28;19930;-68
2023/04/10 11:31:14;;;;;;;;;;;16.50;93.20;;;;;;5078194;28;19924;-66
2023/04/10 11:33:40;;;;;;;;;;;16.50;93.30;;;;;;5096008;28;19928;-67
2023/04/10 11:36:10;;;;;;;;;;;16.50;93.20;;;;;;5078130;28;20035;-67
2023/04/10 11:38:36;;;;;;;;;;;16.60;93.40;;;;;;5077774;28;19924;-66
2023/04/10 11:41:03;;;;;;;;;;;16.60;93.50;;;;;;5060747;28;19947;-68
2023/04/10 11:43:28;;;;;;;;;;;16.60;93.20;;;;;;5077794;28;20458;-66
2023/04/10 11:46:01;;;;;;;;;;;16.70;93.30;;;;;;5095507;28;20041;-65
2023/04/10 11:48:27;;;;;;;;;;;16.60;93.30;;;;;;5077719;28;20353;-66
2023/04/10 11:50:53;;;;;;;;;;;16.60;93.10;;;;;;5095673;28;19924;-67
2023/04/10 11:53:20;;;;;;;;;;;16.60;93.30;;;;;;5061125;28;19931;-67
2023/04/10 11:55:46;;;;;;;;;;;16.60;93.20;;;;;;5060502;28;20412;-66
2023/04/10 11:58:41;;;;;;;;;;;16.60;93.30;;;;;;5077715;28;19971;-66
2023/04/10 12:01:10;;;;;;;;;;;16.60;93.10;;;;;;5055817;28;19999;-68
2023/04/10 12:03:37;;;;;;;;;;;16.60;93.40;;;;;;5095791;28;19931;-66
2023/04/10 12:06:05;;;;;;;;;;;16.60;93.20;;;;;;5094954;28;19920;-67
2023/04/10 12:08:31;;;;;;;;;;;16.60;93.30;;;;;;5077764;28;19924;-67
2023/04/10 12:10:57;;;;;;;;;;;16.60;93.10;;;;;;5077388;28;20262;-66
2023/04/10 12:13:23;;;;;;;;;;;16.70;93.40;;;;;;5077072;28;19936;-67
2023/04/10 12:15:49;;;;;;;;;;;16.80;93.40;;;;;;5094648;28;19928;-66
2023/04/10 12:18:15;;;;;;;;;;;16.90;93.40;;;;;;5060657;28;19931;-66
2023/04/10 12:20:41;;;;;;;;;;;16.90;93.30;;;;;;5060821;28;19931;-67
2023/04/10 12:23:06;;;;;;;;;;;17.00;92.90;;;;;;5076906;28;20166;-66
2023/04/10 12:25:34;;;;;;;;;;;17.10;93.00;;;;;;5077211;28;19928;-66
2023/04/10 12:27:59;;;;;;;;;;;17.10;93.20;;;;;;5059639;28;19928;-66
2023/04/10 12:30:25;;;;;;;;;;;17.20;92.70;;;;;;5076793;28;19950;-66
2023/04/10 12:32:54;;;;;;;;;;;17.30;92.80;;;;;;5059844;28;19930;-65
2023/04/10 12:35:19;;;;;;;;;;;17.40;92.80;;;;;;5076688;28;20007;-68
2023/04/10 12:37:49;;;;;;;;;;;17.50;92.70;;;;;;5076848;28;20023;-67
2023/04/10 12:40:15;;;;;;;;;;;17.50;92.80;;;;;;5076457;28;19924;-67
2023/04/10 12:42:41;;;;;;;;;;;17.90;92.70;;;;;;5076269;28;19924;-67
2023/04/10 12:45:08;;;;;;;;;;;17.50;92.40;;;;;;5075891;28;19947;-67
2023/04/10 12:47:47;;;;;;;;;;;17.50;92.30;;;;;;5094314;28;19931;-67
2023/04/10 12:50:14;;;;;;;;;;;17.30;92.40;;;;;;5075700;28;19931;-66
2023/04/10 12:52:41;;;;;;;;;;;17.30;92.70;;;;;;5076374;28;20091;-66
2023/04/10 12:55:11;;;;;;;;;;;17.20;92.80;;;;;;5075851;28;19924;-66
2023/04/10 12:57:37;;;;;;;;;;;17.20;92.70;;;;;;5076039;28;19927;-66
2023/04/10 13:00:08;;;;;;;;;;;17.20;93.10;;;;;;5059606;28;19931;-65
2023/04/10 13:02:34;;;;;;;;;;;17.20;93.00;;;;;;5075853;28;20422;-67
2023/04/10 13:05:00;;;;;;;;;;;17.00;93.10;;;;;;5075713;28;19935;-65
2023/04/10 13:07:26;;;;;;;;;;;17.00;93.40;;;;;;5094035;28;19924;-65
2023/04/10 13:09:51;;;;;;;;;;;17.00;93.40;;;;;;5076064;28;19924;-66
2023/04/10 13:12:17;;;;;;;;;;;17.00;93.60;;;;;;5093137;28;19932;-65
2023/04/10 13:14:42;;;;;;;;;;;17.00;93.80;;;;;;5093811;28;19966;-67
2023/04/10 13:17:08;;;;;;;;;;;17.00;93.90;;;;;;5093423;28;19924;-67
2023/04/10 13:19:34;;;;;;;;;;;17.00;93.80;;;;;;5075816;28;20423;-67
2023/04/10 13:22:00;;;;;;;;;;;17.00;93.80;;;;;;5075400;28;19931;-67
2023/04/10 13:24:26;;;;;;;;;;;17.00;93.90;;;;;;5093803;28;19924;-68
2023/04/10 13:26:52;;;;;;;;;;;17.00;94.00;;;;;;5059257;28;20291;-67
2023/04/10 13:29:18;;;;;;;;;;;17.10;93.90;;;;;;5075404;28;19924;-67
2023/04/10 13:31:43;;;;;;;;;;;17.00;93.90;;;;;;5075732;28;19930;-67
2023/04/10 13:34:09;;;;;;;;;;;17.00;93.80;;;;;;5074867;28;19928;-66
2023/04/10 13:36:34;;;;;;;;;;;16.90;94.10;;;;;;5093645;28;19920;-68
2023/04/10 13:39:00;;;;;;;;;;;16.90;94.20;;;;;;5074757;28;19924;-67
2023/04/10 13:41:25;;;;;;;;;;;16.80;94.20;;;;;;5092984;28;19928;-66
2023/04/10 13:43:51;;;;;;;;;;;16.80;94.10;;;;;;5093843;28;19925;-67
2023/04/10 13:46:17;;;;;;;;;;;16.80;94.30;;;;;;5058828;28;20085;-67
2023/04/10 13:48:42;;;;;;;;;;;16.80;94.50;;;;;;5093609;28;19928;-65
2023/04/10 13:51:08;;;;;;;;;;;16.70;94.50;;;;;;5090232;28;19971;-65
2023/04/10 13:53:33;;;;;;;;;;;16.70;94.50;;;;;;5092346;28;19924;-65
2023/04/10 13:55:59;;;;;;;;;;;16.70;94.60;;;;;;5074129;28;19927;-67
2023/04/10 13:58:27;;;;;;;;;;;16.70;94.80;;;;;;5092147;28;20369;-67
2023/04/10 14:00:53;;;;;;;;;;;16.70;94.90;;;;;;5057801;28;19924;-66
2023/04/10 14:03:18;;;;;;;;;;;16.80;94.90;;;;;;5091757;28;19939;-66
2023/04/10 14:05:44;;;;;;;;;;;16.70;94.70;;;;;;5091994;28;20015;-66
2023/04/10 14:08:13;;;;;;;;;;;16.70;94.70;;;;;;5091264;28;19928;-66
2023/04/10 14:10:39;;;;;;;;;;;16.70;94.80;;;;;;5092583;28;20015;-66
2023/04/10 14:13:10;;;;;;;;;;;16.60;94.90;;;;;;5058525;28;19977;-66
2023/04/10 14:15:36;;;;;;;;;;;16.60;94.90;;;;;;5075814;28;20296;-67
2023/04/10 14:18:02;;;;;;;;;;;16.50;95.10;;;;;;5041912;28;19924;-66
2023/04/10 14:20:27;;;;;;;;;;;16.50;95.10;;;;;;5092833;28;19931;-67
2023/04/10 14:22:53;;;;;;;;;;;16.50;95.30;;;;;;5074961;28;19924;-66
2023/04/10 14:25:18;;;;;;;;;;;16.50;95.30;;;;;;5092551;28;19924;-66